Terminal Aerodrome Forecast
Issued by NWS

Home | Current Version | Previous Version | Text Only | Print | Product List | Glossary On
Versions: 1 2 3 4 5 6 7 8 9 10 11 12 13 14 15 16
222
FTUS41 KPBZ 201728
TAFLBE
TAF
KLBE 201728Z 2018/2118 25009KT P6SM SCT045
     FM202300 24009KT P6SM VCTS BKN045CB
     FM210100 23005KT P6SM SCT040=

USA.gov is the U.S. government's official web portal to all federal, state and local government web resources and services.